Pont-Rouge, Canada
Current Conditions -  °F | °C
As of 6:00 AM on Friday 28 Nov 2014 (Local Time) from CYOY Reporting Station
Overcast Overcast  
Wind Chill: 19°   Ceiling: 6900
Heat Index: 19°   Visibility: 9mi
Dew Point: 10°   Wind: 3mph
Humidity: 68%   Direction: 40°NE
Pressure: 30.01"   Gusts: NA
Location:  46.75°N, 71.7°W
Report Text: CYOY 281100Z AUTO 04003KT 9SM OVC069 M07/M12 A3001 RMK SLP175
Loading
Personal Weather Stations






























Interactive Weather Map New forecast layout! Learn more

10-Day Weather Forecast

Advertisements
Track Severe Weather on mobile